sensor_id;sensor_type;location;lat;lon;timestamp;P1;durP1;ratioP1;P2;durP2;ratioP2
77061;SDS011;65989;51.686;5.138;2023-12-04T00:02:23;28.33;;;11.00;;
77061;SDS011;65989;51.686;5.138;2023-12-04T00:04:49;25.40;;;11.43;;
77061;SDS011;65989;51.686;5.138;2023-12-04T00:07:14;23.77;;;10.83;;
77061;SDS011;65989;51.686;5.138;2023-12-04T00:09:39;30.10;;;11.37;;
77061;SDS011;65989;51.686;5.138;2023-12-04T00:12:04;29.47;;;11.90;;
77061;SDS011;65989;51.686;5.138;2023-12-04T00:14:30;27.97;;;11.50;;
77061;SDS011;65989;51.686;5.138;2023-12-04T00:16:55;24.90;;;11.30;;
77061;SDS011;65989;51.686;5.138;2023-12-04T00:19:20;25.03;;;11.60;;
77061;SDS011;65989;51.686;5.138;2023-12-04T00:21:45;26.60;;;11.33;;
77061;SDS011;65989;51.686;5.138;2023-12-04T00:24:11;24.27;;;10.73;;
77061;SDS011;65989;51.686;5.138;2023-12-04T00:26:36;27.67;;;11.00;;
77061;SDS011;65989;51.686;5.138;2023-12-04T00:29:01;26.40;;;11.80;;
77061;SDS011;65989;51.686;5.138;2023-12-04T00:31:27;23.40;;;10.20;;
77061;SDS011;65989;51.686;5.138;2023-12-04T00:33:52;24.85;;;11.00;;
77061;SDS011;65989;51.686;5.138;2023-12-04T00:36:18;26.03;;;10.70;;
77061;SDS011;65989;51.686;5.138;2023-12-04T00:38:44;24.48;;;9.45;;
77061;SDS011;65989;51.686;5.138;2023-12-04T00:41:10;25.00;;;11.07;;
77061;SDS011;65989;51.686;5.138;2023-12-04T00:43:35;24.20;;;9.82;;
77061;SDS011;65989;51.686;5.138;2023-12-04T00:46:00;20.67;;;9.77;;
77061;SDS011;65989;51.686;5.138;2023-12-04T00:48:26;23.60;;;10.40;;
77061;SDS011;65989;51.686;5.138;2023-12-04T00:50:51;23.57;;;10.30;;
77061;SDS011;65989;51.686;5.138;2023-12-04T00:53:16;24.67;;;10.47;;
77061;SDS011;65989;51.686;5.138;2023-12-04T00:55:42;23.10;;;10.40;;
77061;SDS011;65989;51.686;5.138;2023-12-04T00:58:07;27.23;;;10.67;;
77061;SDS011;65989;51.686;5.138;2023-12-04T01:00:32;27.93;;;11.23;;
77061;SDS011;65989;51.686;5.138;2023-12-04T01:02:57;24.27;;;10.37;;
77061;SDS011;65989;51.686;5.138;2023-12-04T01:05:23;26.70;;;10.80;;
77061;SDS011;65989;51.686;5.138;2023-12-04T01:07:48;23.93;;;10.43;;
77061;SDS011;65989;51.686;5.138;2023-12-04T01:10:13;23.05;;;10.80;;
77061;SDS011;65989;51.686;5.138;2023-12-04T01:12:39;23.57;;;10.37;;
77061;SDS011;65989;51.686;5.138;2023-12-04T01:15:04;24.83;;;10.20;;
77061;SDS011;65989;51.686;5.138;2023-12-04T01:17:29;26.90;;;10.60;;
77061;SDS011;65989;51.686;5.138;2023-12-04T01:19:54;23.33;;;9.47;;
77061;SDS011;65989;51.686;5.138;2023-12-04T01:22:20;24.93;;;10.07;;
77061;SDS011;65989;51.686;5.138;2023-12-04T01:24:45;25.30;;;10.67;;
77061;SDS011;65989;51.686;5.138;2023-12-04T01:27:10;24.80;;;10.77;;
77061;SDS011;65989;51.686;5.138;2023-12-04T01:29:36;25.07;;;10.23;;
77061;SDS011;65989;51.686;5.138;2023-12-04T01:32:01;25.43;;;10.50;;
77061;SDS011;65989;51.686;5.138;2023-12-04T01:34:26;24.10;;;10.07;;
77061;SDS011;65989;51.686;5.138;2023-12-04T01:36:51;23.90;;;10.23;;
77061;SDS011;65989;51.686;5.138;2023-12-04T01:39:17;28.87;;;10.47;;
77061;SDS011;65989;51.686;5.138;2023-12-04T01:41:42;23.80;;;9.67;;
77061;SDS011;65989;51.686;5.138;2023-12-04T01:44:07;23.13;;;10.77;;
77061;SDS011;65989;51.686;5.138;2023-12-04T01:46:32;22.77;;;9.57;;
77061;SDS011;65989;51.686;5.138;2023-12-04T01:48:58;24.37;;;9.87;;
77061;SDS011;65989;51.686;5.138;2023-12-04T01:51:23;21.47;;;9.60;;
77061;SDS011;65989;51.686;5.138;2023-12-04T01:53:49;24.92;;;9.75;;
77061;SDS011;65989;51.686;5.138;2023-12-04T01:56:15;22.70;;;9.80;;
77061;SDS011;65989;51.686;5.138;2023-12-04T01:58:41;26.75;;;10.73;;
77061;SDS011;65989;51.686;5.138;2023-12-04T02:01:07;23.67;;;10.30;;
77061;SDS011;65989;51.686;5.138;2023-12-04T02:03:32;22.75;;;9.60;;
77061;SDS011;65989;51.686;5.138;2023-12-04T02:05:58;22.83;;;9.00;;
77061;SDS011;65989;51.686;5.138;2023-12-04T02:08:24;21.42;;;9.55;;
77061;SDS011;65989;51.686;5.138;2023-12-04T02:10:49;23.57;;;10.03;;
77061;SDS011;65989;51.686;5.138;2023-12-04T02:13:15;24.57;;;9.73;;
77061;SDS011;65989;51.686;5.138;2023-12-04T02:15:40;25.40;;;10.67;;
77061;SDS011;65989;51.686;5.138;2023-12-04T02:18:05;27.03;;;9.63;;
77061;SDS011;65989;51.686;5.138;2023-12-04T02:20:31;23.07;;;9.77;;
77061;SDS011;65989;51.686;5.138;2023-12-04T02:22:57;27.15;;;9.63;;
77061;SDS011;65989;51.686;5.138;2023-12-04T02:25:22;25.73;;;9.80;;
77061;SDS011;65989;51.686;5.138;2023-12-04T02:27:49;23.03;;;9.20;;
77061;SDS011;65989;51.686;5.138;2023-12-04T02:30:15;21.27;;;9.32;;
77061;SDS011;65989;51.686;5.138;2023-12-04T02:32:42;23.38;;;9.55;;
77061;SDS011;65989;51.686;5.138;2023-12-04T02:35:09;19.52;;;9.20;;
77061;SDS011;65989;51.686;5.138;2023-12-04T02:37:35;21.67;;;10.10;;
77061;SDS011;65989;51.686;5.138;2023-12-04T02:40:00;22.50;;;9.20;;
77061;SDS011;65989;51.686;5.138;2023-12-04T02:42:26;20.63;;;8.80;;
77061;SDS011;65989;51.686;5.138;2023-12-04T02:44:51;18.43;;;9.20;;
77061;SDS011;65989;51.686;5.138;2023-12-04T02:47:17;21.98;;;9.05;;
77061;SDS011;65989;51.686;5.138;2023-12-04T02:49:42;23.97;;;9.80;;
77061;SDS011;65989;51.686;5.138;2023-12-04T02:52:08;23.10;;;9.83;;
77061;SDS011;65989;51.686;5.138;2023-12-04T02:54:33;19.87;;;9.03;;
77061;SDS011;65989;51.686;5.138;2023-12-04T02:56:58;22.57;;;9.20;;
77061;SDS011;65989;51.686;5.138;2023-12-04T02:59:23;19.20;;;8.13;;
77061;SDS011;65989;51.686;5.138;2023-12-04T03:01:48;20.10;;;8.73;;
77061;SDS011;65989;51.686;5.138;2023-12-04T03:04:14;22.73;;;9.87;;
77061;SDS011;65989;51.686;5.138;2023-12-04T03:06:39;19.40;;;9.17;;
77061;SDS011;65989;51.686;5.138;2023-12-04T03:09:04;20.67;;;8.70;;
77061;SDS011;65989;51.686;5.138;2023-12-04T03:11:30;19.80;;;9.13;;
77061;SDS011;65989;51.686;5.138;2023-12-04T03:13:55;21.13;;;8.27;;
77061;SDS011;65989;51.686;5.138;2023-12-04T03:16:20;20.63;;;8.40;;
77061;SDS011;65989;51.686;5.138;2023-12-04T03:18:46;19.77;;;8.13;;
77061;SDS011;65989;51.686;5.138;2023-12-04T03:21:11;22.90;;;8.57;;
77061;SDS011;65989;51.686;5.138;2023-12-04T03:23:36;22.30;;;9.20;;
77061;SDS011;65989;51.686;5.138;2023-12-04T03:26:02;20.90;;;8.97;;
77061;SDS011;65989;51.686;5.138;2023-12-04T03:28:27;19.75;;;8.82;;
77061;SDS011;65989;51.686;5.138;2023-12-04T03:30:52;20.17;;;8.30;;
77061;SDS011;65989;51.686;5.138;2023-12-04T03:33:18;19.43;;;8.33;;
77061;SDS011;65989;51.686;5.138;2023-12-04T03:35:44;20.77;;;8.60;;
77061;SDS011;65989;51.686;5.138;2023-12-04T03:38:09;20.67;;;8.95;;
77061;SDS011;65989;51.686;5.138;2023-12-04T03:40:34;19.17;;;8.93;;
77061;SDS011;65989;51.686;5.138;2023-12-04T03:42:59;17.97;;;8.03;;
77061;SDS011;65989;51.686;5.138;2023-12-04T03:45:25;19.80;;;8.50;;
77061;SDS011;65989;51.686;5.138;2023-12-04T03:47:50;21.00;;;7.70;;
77061;SDS011;65989;51.686;5.138;2023-12-04T03:50:15;21.07;;;9.20;;
77061;SDS011;65989;51.686;5.138;2023-12-04T03:52:40;18.97;;;7.77;;
77061;SDS011;65989;51.686;5.138;2023-12-04T03:55:07;19.27;;;8.88;;
77061;SDS011;65989;51.686;5.138;2023-12-04T03:57:32;19.30;;;8.13;;
77061;SDS011;65989;51.686;5.138;2023-12-04T03:59:57;17.57;;;7.73;;
77061;SDS011;65989;51.686;5.138;2023-12-04T04:02:22;21.23;;;7.70;;
77061;SDS011;65989;51.686;5.138;2023-12-04T04:04:48;18.17;;;7.67;;
77061;SDS011;65989;51.686;5.138;2023-12-04T04:07:16;16.73;;;7.72;;
77061;SDS011;65989;51.686;5.138;2023-12-04T04:09:41;16.53;;;7.60;;
77061;SDS011;65989;51.686;5.138;2023-12-04T04:12:06;16.27;;;6.87;;
77061;SDS011;65989;51.686;5.138;2023-12-04T04:14:32;17.80;;;8.00;;
77061;SDS011;65989;51.686;5.138;2023-12-04T04:16:57;18.73;;;8.30;;
77061;SDS011;65989;51.686;5.138;2023-12-04T04:19:22;18.97;;;8.53;;
77061;SDS011;65989;51.686;5.138;2023-12-04T04:21:47;16.07;;;6.73;;
77061;SDS011;65989;51.686;5.138;2023-12-04T04:24:12;20.07;;;7.87;;
77061;SDS011;65989;51.686;5.138;2023-12-04T04:26:38;20.27;;;8.17;;
77061;SDS011;65989;51.686;5.138;2023-12-04T04:29:03;15.60;;;7.40;;
77061;SDS011;65989;51.686;5.138;2023-12-04T04:31:28;17.70;;;8.03;;
77061;SDS011;65989;51.686;5.138;2023-12-04T04:33:53;18.30;;;7.83;;
77061;SDS011;65989;51.686;5.138;2023-12-04T04:36:19;18.77;;;7.90;;
77061;SDS011;65989;51.686;5.138;2023-12-04T04:38:44;15.70;;;7.23;;
77061;SDS011;65989;51.686;5.138;2023-12-04T04:41:13;20.40;;;7.70;;
77061;SDS011;65989;51.686;5.138;2023-12-04T04:43:38;16.35;;;7.25;;
77061;SDS011;65989;51.686;5.138;2023-12-04T04:46:03;16.90;;;7.60;;
77061;SDS011;65989;51.686;5.138;2023-12-04T04:48:28;17.43;;;7.67;;
77061;SDS011;65989;51.686;5.138;2023-12-04T04:50:54;17.53;;;7.57;;
77061;SDS011;65989;51.686;5.138;2023-12-04T04:53:19;16.50;;;8.03;;
77061;SDS011;65989;51.686;5.138;2023-12-04T04:55:44;19.80;;;7.83;;
77061;SDS011;65989;51.686;5.138;2023-12-04T04:58:09;18.87;;;8.23;;
77061;SDS011;65989;51.686;5.138;2023-12-04T05:00:35;19.27;;;8.23;;
77061;SDS011;65989;51.686;5.138;2023-12-04T05:03:00;19.70;;;8.63;;
77061;SDS011;65989;51.686;5.138;2023-12-04T05:05:25;18.47;;;7.53;;
77061;SDS011;65989;51.686;5.138;2023-12-04T05:07:50;16.60;;;8.30;;
77061;SDS011;65989;51.686;5.138;2023-12-04T05:10:16;16.87;;;7.60;;
77061;SDS011;65989;51.686;5.138;2023-12-04T05:12:41;16.63;;;7.73;;
77061;SDS011;65989;51.686;5.138;2023-12-04T05:15:06;15.73;;;7.80;;
77061;SDS011;65989;51.686;5.138;2023-12-04T05:17:31;18.80;;;7.47;;
77061;SDS011;65989;51.686;5.138;2023-12-04T05:19:57;16.97;;;7.50;;
77061;SDS011;65989;51.686;5.138;2023-12-04T05:22:22;17.17;;;7.70;;
77061;SDS011;65989;51.686;5.138;2023-12-04T05:24:50;15.48;;;7.13;;
77061;SDS011;65989;51.686;5.138;2023-12-04T05:27:15;15.00;;;7.27;;
77061;SDS011;65989;51.686;5.138;2023-12-04T05:29:41;17.57;;;6.77;;
77061;SDS011;65989;51.686;5.138;2023-12-04T05:32:06;15.93;;;7.43;;
77061;SDS011;65989;51.686;5.138;2023-12-04T05:34:31;14.67;;;7.10;;
77061;SDS011;65989;51.686;5.138;2023-12-04T05:36:56;15.47;;;7.07;;
77061;SDS011;65989;51.686;5.138;2023-12-04T05:39:22;18.77;;;7.53;;
77061;SDS011;65989;51.686;5.138;2023-12-04T05:41:47;14.47;;;6.90;;
77061;SDS011;65989;51.686;5.138;2023-12-04T05:44:13;14.70;;;7.20;;
77061;SDS011;65989;51.686;5.138;2023-12-04T05:46:38;18.50;;;7.53;;
77061;SDS011;65989;51.686;5.138;2023-12-04T05:49:04;15.40;;;7.37;;
77061;SDS011;65989;51.686;5.138;2023-12-04T05:51:29;15.07;;;6.97;;
77061;SDS011;65989;51.686;5.138;2023-12-04T05:53:54;15.70;;;7.30;;
77061;SDS011;65989;51.686;5.138;2023-12-04T05:56:19;16.43;;;7.10;;
77061;SDS011;65989;51.686;5.138;2023-12-04T05:58:44;13.37;;;6.57;;
77061;SDS011;65989;51.686;5.138;2023-12-04T06:01:10;15.57;;;7.93;;
77061;SDS011;65989;51.686;5.138;2023-12-04T06:03:35;16.20;;;6.97;;
77061;SDS011;65989;51.686;5.138;2023-12-04T06:06:00;14.53;;;7.23;;
77061;SDS011;65989;51.686;5.138;2023-12-04T06:08:25;16.23;;;7.20;;
77061;SDS011;65989;51.686;5.138;2023-12-04T06:10:51;14.00;;;7.43;;
77061;SDS011;65989;51.686;5.138;2023-12-04T06:13:16;16.57;;;7.30;;
77061;SDS011;65989;51.686;5.138;2023-12-04T06:15:41;14.33;;;7.30;;
77061;SDS011;65989;51.686;5.138;2023-12-04T06:18:07;14.23;;;6.65;;
77061;SDS011;65989;51.686;5.138;2023-12-04T06:20:32;13.63;;;6.57;;
77061;SDS011;65989;51.686;5.138;2023-12-04T06:22:58;14.97;;;7.00;;
77061;SDS011;65989;51.686;5.138;2023-12-04T06:25:23;13.13;;;5.60;;
77061;SDS011;65989;51.686;5.138;2023-12-04T06:27:48;15.37;;;7.17;;
77061;SDS011;65989;51.686;5.138;2023-12-04T06:30:14;14.45;;;7.10;;
77061;SDS011;65989;51.686;5.138;2023-12-04T06:32:39;17.60;;;7.53;;
77061;SDS011;65989;51.686;5.138;2023-12-04T06:35:05;17.33;;;7.80;;
77061;SDS011;65989;51.686;5.138;2023-12-04T06:37:30;15.87;;;7.97;;
77061;SDS011;65989;51.686;5.138;2023-12-04T06:39:57;15.35;;;7.88;;
77061;SDS011;65989;51.686;5.138;2023-12-04T06:42:24;16.35;;;7.68;;
77061;SDS011;65989;51.686;5.138;2023-12-04T06:44:50;16.10;;;8.10;;
77061;SDS011;65989;51.686;5.138;2023-12-04T06:47:16;15.63;;;7.83;;
77061;SDS011;65989;51.686;5.138;2023-12-04T06:49:42;14.73;;;7.68;;
77061;SDS011;65989;51.686;5.138;2023-12-04T06:52:07;14.67;;;7.53;;
77061;SDS011;65989;51.686;5.138;2023-12-04T06:54:33;14.50;;;7.53;;
77061;SDS011;65989;51.686;5.138;2023-12-04T06:56:58;16.47;;;8.17;;
77061;SDS011;65989;51.686;5.138;2023-12-04T06:59:23;14.57;;;7.20;;
77061;SDS011;65989;51.686;5.138;2023-12-04T07:01:48;13.83;;;7.13;;
77061;SDS011;65989;51.686;5.138;2023-12-04T07:04:14;15.10;;;8.03;;
77061;SDS011;65989;51.686;5.138;2023-12-04T07:06:39;15.40;;;7.87;;
77061;SDS011;65989;51.686;5.138;2023-12-04T07:09:05;16.20;;;7.57;;
77061;SDS011;65989;51.686;5.138;2023-12-04T07:11:32;15.75;;;7.40;;
77061;SDS011;65989;51.686;5.138;2023-12-04T07:13:57;13.60;;;6.90;;
77061;SDS011;65989;51.686;5.138;2023-12-04T07:16:23;20.00;;;7.97;;
77061;SDS011;65989;51.686;5.138;2023-12-04T07:18:48;17.60;;;7.47;;
77061;SDS011;65989;51.686;5.138;2023-12-04T07:21:13;13.40;;;6.30;;
77061;SDS011;65989;51.686;5.138;2023-12-04T07:23:38;12.13;;;6.07;;
77061;SDS011;65989;51.686;5.138;2023-12-04T07:26:04;16.23;;;7.63;;
77061;SDS011;65989;51.686;5.138;2023-12-04T07:28:31;13.82;;;6.22;;
77061;SDS011;65989;51.686;5.138;2023-12-04T07:30:57;11.87;;;6.63;;
77061;SDS011;65989;51.686;5.138;2023-12-04T07:33:22;12.07;;;5.67;;
77061;SDS011;65989;51.686;5.138;2023-12-04T07:35:47;12.37;;;6.20;;
77061;SDS011;65989;51.686;5.138;2023-12-04T07:38:12;13.27;;;6.47;;
77061;SDS011;65989;51.686;5.138;2023-12-04T07:40:37;11.70;;;5.67;;
77061;SDS011;65989;51.686;5.138;2023-12-04T07:43:03;11.70;;;5.67;;
77061;SDS011;65989;51.686;5.138;2023-12-04T07:45:28;11.47;;;5.70;;
77061;SDS011;65989;51.686;5.138;2023-12-04T07:47:53;14.90;;;6.37;;
77061;SDS011;65989;51.686;5.138;2023-12-04T07:50:19;12.50;;;5.90;;
77061;SDS011;65989;51.686;5.138;2023-12-04T07:52:44;14.50;;;6.20;;
77061;SDS011;65989;51.686;5.138;2023-12-04T07:55:09;12.83;;;6.00;;
77061;SDS011;65989;51.686;5.138;2023-12-04T07:57:35;11.60;;;5.97;;
77061;SDS011;65989;51.686;5.138;2023-12-04T08:00:00;11.27;;;5.83;;
77061;SDS011;65989;51.686;5.138;2023-12-04T08:02:25;11.87;;;5.63;;
77061;SDS011;65989;51.686;5.138;2023-12-04T08:04:50;12.80;;;5.87;;
77061;SDS011;65989;51.686;5.138;2023-12-04T08:07:16;11.43;;;5.97;;
77061;SDS011;65989;51.686;5.138;2023-12-04T08:09:41;12.50;;;5.67;;
77061;SDS011;65989;51.686;5.138;2023-12-04T08:12:06;12.83;;;5.77;;
77061;SDS011;65989;51.686;5.138;2023-12-04T08:14:32;9.93;;;5.03;;
77061;SDS011;65989;51.686;5.138;2023-12-04T08:16:57;11.13;;;5.27;;
77061;SDS011;65989;51.686;5.138;2023-12-04T08:19:23;11.30;;;5.50;;
77061;SDS011;65989;51.686;5.138;2023-12-04T08:21:48;11.30;;;4.95;;
77061;SDS011;65989;51.686;5.138;2023-12-04T08:24:14;11.13;;;5.17;;
77061;SDS011;65989;51.686;5.138;2023-12-04T08:26:41;10.38;;;4.95;;
77061;SDS011;65989;51.686;5.138;2023-12-04T08:29:06;10.33;;;5.37;;
77061;SDS011;65989;51.686;5.138;2023-12-04T08:31:32;13.93;;;5.13;;
77061;SDS011;65989;51.686;5.138;2023-12-04T08:33:57;12.37;;;5.17;;
77061;SDS011;65989;51.686;5.138;2023-12-04T08:36:22;11.83;;;4.47;;
77061;SDS011;65989;51.686;5.138;2023-12-04T08:38:48;9.83;;;4.37;;
77061;SDS011;65989;51.686;5.138;2023-12-04T08:41:16;10.40;;;5.23;;
77061;SDS011;65989;51.686;5.138;2023-12-04T08:43:41;9.52;;;5.75;;
77061;SDS011;65989;51.686;5.138;2023-12-04T08:46:07;12.27;;;5.20;;
77061;SDS011;65989;51.686;5.138;2023-12-04T08:48:36;12.00;;;5.40;;
77061;SDS011;65989;51.686;5.138;2023-12-04T08:51:01;9.93;;;5.40;;
77061;SDS011;65989;51.686;5.138;2023-12-04T08:53:27;10.73;;;4.90;;
77061;SDS011;65989;51.686;5.138;2023-12-04T08:55:52;10.47;;;5.03;;
77061;SDS011;65989;51.686;5.138;2023-12-04T08:58:18;10.88;;;4.97;;
77061;SDS011;65989;51.686;5.138;2023-12-04T09:00:43;11.57;;;5.38;;
77061;SDS011;65989;51.686;5.138;2023-12-04T09:03:09;9.53;;;4.77;;
77061;SDS011;65989;51.686;5.138;2023-12-04T09:05:37;9.37;;;4.73;;
77061;SDS011;65989;51.686;5.138;2023-12-04T09:08:03;11.07;;;5.38;;
77061;SDS011;65989;51.686;5.138;2023-12-04T09:10:28;9.70;;;5.13;;
77061;SDS011;65989;51.686;5.138;2023-12-04T09:12:53;10.93;;;4.97;;
77061;SDS011;65989;51.686;5.138;2023-12-04T09:15:19;11.93;;;5.30;;
77061;SDS011;65989;51.686;5.138;2023-12-04T09:17:44;9.83;;;5.03;;
77061;SDS011;65989;51.686;5.138;2023-12-04T09:20:10;12.33;;;5.37;;
77061;SDS011;65989;51.686;5.138;2023-12-04T09:22:36;9.80;;;4.77;;
77061;SDS011;65989;51.686;5.138;2023-12-04T09:25:04;11.98;;;5.25;;
77061;SDS011;65989;51.686;5.138;2023-12-04T09:27:29;11.45;;;5.45;;
77061;SDS011;65989;51.686;5.138;2023-12-04T09:29:54;10.57;;;4.97;;
77061;SDS011;65989;51.686;5.138;2023-12-04T09:32:20;11.47;;;5.50;;
77061;SDS011;65989;51.686;5.138;2023-12-04T09:34:45;10.52;;;5.43;;
77061;SDS011;65989;51.686;5.138;2023-12-04T09:37:11;10.03;;;5.27;;
77061;SDS011;65989;51.686;5.138;2023-12-04T09:39:36;9.17;;;5.20;;
77061;SDS011;65989;51.686;5.138;2023-12-04T09:42:01;9.93;;;5.00;;
77061;SDS011;65989;51.686;5.138;2023-12-04T09:44:28;11.82;;;5.55;;
77061;SDS011;65989;51.686;5.138;2023-12-04T09:46:53;11.40;;;5.30;;
77061;SDS011;65989;51.686;5.138;2023-12-04T09:49:18;11.33;;;5.30;;
77061;SDS011;65989;51.686;5.138;2023-12-04T09:51:44;10.75;;;5.55;;
77061;SDS011;65989;51.686;5.138;2023-12-04T09:54:10;13.17;;;5.07;;
77061;SDS011;65989;51.686;5.138;2023-12-04T09:56:36;11.38;;;5.93;;
77061;SDS011;65989;51.686;5.138;2023-12-04T09:59:02;9.63;;;4.90;;
77061;SDS011;65989;51.686;5.138;2023-12-04T10:01:30;11.13;;;5.90;;
77061;SDS011;65989;51.686;5.138;2023-12-04T10:03:58;10.65;;;5.03;;
77061;SDS011;65989;51.686;5.138;2023-12-04T10:06:26;10.50;;;4.80;;
77061;SDS011;65989;51.686;5.138;2023-12-04T10:08:52;11.05;;;5.38;;
77061;SDS011;65989;51.686;5.138;2023-12-04T10:11:18;10.13;;;5.03;;
77061;SDS011;65989;51.686;5.138;2023-12-04T10:13:43;12.40;;;5.00;;
77061;SDS011;65989;51.686;5.138;2023-12-04T10:16:08;9.40;;;4.80;;
77061;SDS011;65989;51.686;5.138;2023-12-04T10:18:33;10.60;;;5.13;;
77061;SDS011;65989;51.686;5.138;2023-12-04T10:20:59;9.97;;;5.13;;
77061;SDS011;65989;51.686;5.138;2023-12-04T10:23:37;10.37;;;4.80;;
77061;SDS011;65989;51.686;5.138;2023-12-04T10:26:03;12.15;;;5.20;;
77061;SDS011;65989;51.686;5.138;2023-12-04T10:28:29;12.77;;;5.72;;
77061;SDS011;65989;51.686;5.138;2023-12-04T10:30:55;11.37;;;4.80;;
77061;SDS011;65989;51.686;5.138;2023-12-04T10:33:20;8.40;;;4.70;;
77061;SDS011;65989;51.686;5.138;2023-12-04T10:35:46;10.75;;;5.20;;
77061;SDS011;65989;51.686;5.138;2023-12-04T10:38:12;11.67;;;5.67;;
77061;SDS011;65989;51.686;5.138;2023-12-04T10:40:39;9.27;;;5.10;;
77061;SDS011;65989;51.686;5.138;2023-12-04T10:43:17;9.80;;;5.57;;
77061;SDS011;65989;51.686;5.138;2023-12-04T10:45:44;9.73;;;5.22;;
77061;SDS011;65989;51.686;5.138;2023-12-04T10:48:10;11.10;;;5.32;;
77061;SDS011;65989;51.686;5.138;2023-12-04T10:50:36;9.70;;;5.53;;
77061;SDS011;65989;51.686;5.138;2023-12-04T10:53:05;10.70;;;5.50;;
77061;SDS011;65989;51.686;5.138;2023-12-04T10:55:31;12.00;;;5.63;;
77061;SDS011;65989;51.686;5.138;2023-12-04T10:57:57;11.83;;;5.63;;
77061;SDS011;65989;51.686;5.138;2023-12-04T11:00:22;12.18;;;6.10;;
77061;SDS011;65989;51.686;5.138;2023-12-04T11:02:49;9.27;;;4.90;;
77061;SDS011;65989;51.686;5.138;2023-12-04T11:05:16;13.32;;;5.78;;
77061;SDS011;65989;51.686;5.138;2023-12-04T11:07:58;9.73;;;4.93;;
77061;SDS011;65989;51.686;5.138;2023-12-04T11:10:26;12.25;;;5.57;;
77061;SDS011;65989;51.686;5.138;2023-12-04T11:12:56;12.18;;;6.32;;
77061;SDS011;65989;51.686;5.138;2023-12-04T11:15:23;12.95;;;6.18;;
77061;SDS011;65989;51.686;5.138;2023-12-04T11:17:49;11.02;;;6.28;;
77061;SDS011;65989;51.686;5.138;2023-12-04T11:20:19;16.20;;;6.03;;
77061;SDS011;65989;51.686;5.138;2023-12-04T11:22:46;11.52;;;6.32;;
77061;SDS011;65989;51.686;5.138;2023-12-04T11:25:13;12.45;;;6.22;;
77061;SDS011;65989;51.686;5.138;2023-12-04T11:27:39;11.68;;;6.20;;
77061;SDS011;65989;51.686;5.138;2023-12-04T11:30:04;13.73;;;6.37;;
77061;SDS011;65989;51.686;5.138;2023-12-04T11:32:31;11.85;;;6.28;;
77061;SDS011;65989;51.686;5.138;2023-12-04T11:34:59;12.30;;;6.63;;
77061;SDS011;65989;51.686;5.138;2023-12-04T11:37:25;11.90;;;6.32;;
77061;SDS011;65989;51.686;5.138;2023-12-04T11:39:50;12.02;;;6.13;;
77061;SDS011;65989;51.686;5.138;2023-12-04T11:42:24;14.20;;;6.63;;
77061;SDS011;65989;51.686;5.138;2023-12-04T11:44:55;12.75;;;5.50;;
77061;SDS011;65989;51.686;5.138;2023-12-04T11:47:21;13.30;;;6.35;;
77061;SDS011;65989;51.686;5.138;2023-12-04T11:49:46;11.47;;;6.50;;
77061;SDS011;65989;51.686;5.138;2023-12-04T11:52:11;12.17;;;6.57;;
77061;SDS011;65989;51.686;5.138;2023-12-04T11:57:35;11.63;;;6.78;;
77061;SDS011;65989;51.686;5.138;2023-12-04T12:00:08;12.93;;;6.97;;
77061;SDS011;65989;51.686;5.138;2023-12-04T12:02:33;14.07;;;6.60;;
77061;SDS011;65989;51.686;5.138;2023-12-04T12:04:58;14.90;;;7.40;;
77061;SDS011;65989;51.686;5.138;2023-12-04T12:07:23;13.60;;;6.83;;
77061;SDS011;65989;51.686;5.138;2023-12-04T12:09:49;12.55;;;6.70;;
77061;SDS011;65989;51.686;5.138;2023-12-04T12:12:15;13.77;;;6.87;;
77061;SDS011;65989;51.686;5.138;2023-12-04T12:14:40;14.30;;;7.00;;
77061;SDS011;65989;51.686;5.138;2023-12-04T12:17:05;14.80;;;7.20;;
77061;SDS011;65989;51.686;5.138;2023-12-04T12:19:30;14.00;;;6.97;;
77061;SDS011;65989;51.686;5.138;2023-12-04T12:21:56;16.27;;;7.63;;
77061;SDS011;65989;51.686;5.138;2023-12-04T12:24:21;14.63;;;7.60;;
77061;SDS011;65989;51.686;5.138;2023-12-04T12:26:46;14.50;;;7.10;;
77061;SDS011;65989;51.686;5.138;2023-12-04T12:29:11;12.68;;;7.15;;
77061;SDS011;65989;51.686;5.138;2023-12-04T12:31:37;14.73;;;6.70;;
77061;SDS011;65989;51.686;5.138;2023-12-04T12:34:02;15.63;;;7.03;;
77061;SDS011;65989;51.686;5.138;2023-12-04T12:36:28;14.63;;;7.30;;
77061;SDS011;65989;51.686;5.138;2023-12-04T12:38:53;12.57;;;6.90;;
77061;SDS011;65989;51.686;5.138;2023-12-04T12:41:19;18.57;;;7.60;;
77061;SDS011;65989;51.686;5.138;2023-12-04T12:43:45;15.45;;;7.38;;
77061;SDS011;65989;51.686;5.138;2023-12-04T12:46:10;14.47;;;7.10;;
77061;SDS011;65989;51.686;5.138;2023-12-04T12:48:36;13.60;;;7.33;;
77061;SDS011;65989;51.686;5.138;2023-12-04T12:51:04;16.27;;;7.47;;
77061;SDS011;65989;51.686;5.138;2023-12-04T12:53:34;12.30;;;5.72;;
77061;SDS011;65989;51.686;5.138;2023-12-04T12:55:59;13.05;;;7.22;;
77061;SDS011;65989;51.686;5.138;2023-12-04T12:58:26;13.52;;;6.90;;
77061;SDS011;65989;51.686;5.138;2023-12-04T13:00:51;15.30;;;7.33;;
77061;SDS011;65989;51.686;5.138;2023-12-04T13:03:16;11.67;;;6.17;;
77061;SDS011;65989;51.686;5.138;2023-12-04T13:05:42;11.27;;;6.33;;
77061;SDS011;65989;51.686;5.138;2023-12-04T13:08:07;14.03;;;5.57;;
77061;SDS011;65989;51.686;5.138;2023-12-04T13:10:32;14.23;;;6.70;;
77061;SDS011;65989;51.686;5.138;2023-12-04T13:12:58;16.00;;;7.03;;
77061;SDS011;65989;51.686;5.138;2023-12-04T13:15:25;14.00;;;6.50;;
77061;SDS011;65989;51.686;5.138;2023-12-04T13:17:50;13.57;;;6.63;;
77061;SDS011;65989;51.686;5.138;2023-12-04T13:20:15;12.23;;;6.27;;
77061;SDS011;65989;51.686;5.138;2023-12-04T13:22:41;12.75;;;6.50;;
77061;SDS011;65989;51.686;5.138;2023-12-04T13:25:07;11.17;;;6.13;;
77061;SDS011;65989;51.686;5.138;2023-12-04T13:27:34;12.10;;;5.93;;
77061;SDS011;65989;51.686;5.138;2023-12-04T13:30:01;14.50;;;6.53;;
77061;SDS011;65989;51.686;5.138;2023-12-04T13:32:26;12.67;;;6.37;;
77061;SDS011;65989;51.686;5.138;2023-12-04T13:34:52;11.52;;;6.15;;
77061;SDS011;65989;51.686;5.138;2023-12-04T13:37:20;13.18;;;6.20;;
77061;SDS011;65989;51.686;5.138;2023-12-04T13:39:45;12.47;;;6.23;;
77061;SDS011;65989;51.686;5.138;2023-12-04T13:42:14;16.75;;;6.65;;
77061;SDS011;65989;51.686;5.138;2023-12-04T13:44:58;15.27;;;6.50;;
77061;SDS011;65989;51.686;5.138;2023-12-04T13:47:23;11.63;;;6.40;;
77061;SDS011;65989;51.686;5.138;2023-12-04T13:49:48;14.87;;;7.03;;
77061;SDS011;65989;51.686;5.138;2023-12-04T13:52:14;13.82;;;6.15;;
77061;SDS011;65989;51.686;5.138;2023-12-04T13:54:39;12.00;;;6.20;;
77061;SDS011;65989;51.686;5.138;2023-12-04T13:57:12;18.33;;;6.82;;
77061;SDS011;65989;51.686;5.138;2023-12-04T13:59:46;14.10;;;7.03;;
77061;SDS011;65989;51.686;5.138;2023-12-04T14:02:11;13.77;;;6.50;;
77061;SDS011;65989;51.686;5.138;2023-12-04T14:04:37;13.93;;;6.67;;
77061;SDS011;65989;51.686;5.138;2023-12-04T14:07:04;10.88;;;5.93;;
77061;SDS011;65989;51.686;5.138;2023-12-04T14:09:29;12.37;;;6.23;;
77061;SDS011;65989;51.686;5.138;2023-12-04T14:11:54;13.17;;;6.47;;
77061;SDS011;65989;51.686;5.138;2023-12-04T14:14:19;12.97;;;6.90;;
77061;SDS011;65989;51.686;5.138;2023-12-04T14:16:45;13.03;;;6.90;;
77061;SDS011;65989;51.686;5.138;2023-12-04T14:19:12;17.70;;;6.82;;
77061;SDS011;65989;51.686;5.138;2023-12-04T14:21:39;12.30;;;6.28;;
77061;SDS011;65989;51.686;5.138;2023-12-04T14:24:05;11.97;;;6.23;;
77061;SDS011;65989;51.686;5.138;2023-12-04T14:26:30;13.27;;;6.60;;
77061;SDS011;65989;51.686;5.138;2023-12-04T14:28:55;14.47;;;7.23;;